Аэропорт: Бегишево. Набережные Челны, Нижнекамск

ICAO: UWKE

METAR:
2021-07-28 14:00:00
UWKE 281400Z 34005MPS CAVOK 21/06 Q1014 R03/090070 NOSIG RMK QFE744/0992
METAR:
2021-07-28 10:45:00
TAF UWKE 281045Z 2812/2912 27003G09MPS 9999 SCT040 TEMPO 2812/2818 32005G12MPS SCT030 BECMG 2818/2820 25003G09MPS